Airfield :
LOGIN :

Register | Disclaimer

   EN    FR    IT 

 










Legend :    VFR   Marginal VFR   IFR   Intensive IFR   Very Intensive IFR
Visi :
Ceiling :
>= 8 km
>= 3000ft
5 to 8 km
1000 to 3000 ft
1500m to 5 km
500 to 1000 ft
800 to 1500m
200 to 500 ft
< 800m
< 200 ft
Symbols :   Thunderstorms  Fog  Heavy snow  Heavy precipitations  Wind > 20 kt
SIGMETs :     Misc.  Thunderstorms  Icing  Turbulence  Mountain Waves  Volcanic Ashes







- Airport Elevation : 100 ft


EBDT - Schaffen

CURRENT METAR :
  • 190955Z 25011KT 9999 FEW017 09/04 Q1020 BLACKBLU BLU

EXPIRED METARs :
  • 190925Z 24007KT 9999 FEW015 09/04 Q1020 BLACKBLU BLU
  • 190855Z 24006KT 9999 FEW010 08/05 Q1020 BLACKBLU BLU
  • 190825Z 23007KT 9999 FEW010 07/05 Q1019 BLACKBLU BLU
  • 190755Z 22005KT 9999 FEW013 07/05 Q1019 BLACKBLU BLU
  • 190725Z 22004KT 9999 FEW011 06/05 Q1019 BLACKBLU BLU
  • 190722Z 22004KT 9999 FEW011 06/05 Q1019 BLACKBLU BLU

TAF TAF EBDT
Valid from the 19 at 10:00 until the 19 at 19:00 UTC


190841Z 1910/1919 25010KT 9999 BKN030
No reported NOTAMs for that airfield.



MET'MAP, your aeronautical weather chart ! - Copyright ORBIFLY December 2007 - Disclaimer

ORBIFLY MET'MAP TEAM :

Programming & Development : Alexandra Zaïnal
Concept & Development : Baudouin d'Aumeries
Co-Development & Prog : Marc-Olivier Méhu
Technical & hardware support : Manuel Goepfert

Contact : metmap@orbifly.com




SOURCES & CREDITS :

   NOAA